createdAt,value
2019-02-11T00:01:10.542Z,99206.27
2019-02-11T00:02:13.995Z,99211.86
2019-02-11T00:03:16.234Z,99207.17
2019-02-11T00:04:18.437Z,99204.58
2019-02-11T00:05:20.679Z,99207.97
2019-02-11T00:06:22.903Z,99204.06
2019-02-11T00:07:25.105Z,99206.67
2019-02-11T00:08:27.325Z,99207.17
2019-02-11T00:09:29.543Z,99218.36
2019-02-11T00:10:31.767Z,99203.56
2019-02-11T00:11:33.981Z,99205.77
2019-02-11T00:12:36.188Z,99216.66
2019-02-11T00:13:38.421Z,99219.15
2019-02-11T00:14:40.705Z,99218.75
2019-02-11T00:15:42.937Z,99220.96
2019-02-11T00:16:45.171Z,99227.85
2019-02-11T00:17:47.368Z,99226.55
2019-02-11T00:18:49.665Z,99231.36
2019-02-11T00:19:51.880Z,99233.45
2019-02-11T00:20:54.083Z,99234.86
2019-02-11T00:21:56.289Z,99230.05
2019-02-11T00:22:58.499Z,99229.66
2019-02-11T00:24:00.732Z,99230.17
2019-02-11T00:25:03.042Z,99232.77
2019-02-11T00:26:05.432Z,99230.45
2019-02-11T00:27:07.635Z,99232.66
2019-02-11T00:28:09.844Z,99234.86
2019-02-11T00:29:12.067Z,99230.45
2019-02-11T00:30:14.270Z,99231.36
2019-02-11T00:31:16.935Z,99233.95
2019-02-11T00:32:19.096Z,99233.95
2019-02-11T00:33:21.323Z,99236.05
2019-02-11T00:34:23.558Z,99238.25
2019-02-11T00:35:25.775Z,99239.15
2019-02-11T00:36:30.847Z,99235.14
2019-02-11T00:37:35.780Z,99241.63
2019-02-11T00:38:38.011Z,99241.63
2019-02-11T00:39:40.225Z,99248.92
2019-02-11T00:40:42.427Z,99247.23
2019-02-11T00:41:44.632Z,99242.42
2019-02-11T00:42:47.085Z,99242.42
2019-02-11T00:43:49.294Z,99249.83
2019-02-11T00:44:51.546Z,99244.63
2019-02-11T00:45:53.749Z,99249.43
2019-02-11T00:46:55.961Z,99252.03
2019-02-11T00:47:58.180Z,99247.73
2019-02-11T00:49:00.436Z,99248.13
2019-02-11T00:50:02.626Z,99251.52
2019-02-11T00:51:04.835Z,99260.61
2019-02-11T00:52:06.958Z,99264.12
2019-02-11T00:53:09.164Z,99264.12
2019-02-11T00:54:11.371Z,99267.63
2019-02-11T00:55:13.804Z,99273.61
2019-02-11T00:56:19.058Z,99269.71
2019-02-11T00:57:21.270Z,99280.10
2019-02-11T00:58:23.496Z,99277.00
2019-02-11T00:59:25.692Z,99277.90
2019-02-11T01:00:27.937Z,99287.00
2019-02-11T01:01:30.147Z,99286.20
2019-02-11T01:02:32.354Z,99283.09
2019-02-11T01:03:34.582Z,99288.30
2019-02-11T01:04:36.781Z,99288.30
2019-02-11T01:05:39.011Z,99292.59
2019-02-11T01:06:41.224Z,99288.69
2019-02-11T01:07:43.431Z,99293.09
2019-02-11T01:08:45.646Z,99292.98
2019-02-11T01:09:48.384Z,99295.06
2019-02-11T01:10:50.637Z,99304.28
2019-02-11T01:11:53.154Z,99298.97
2019-02-11T01:12:55.357Z,99304.67
2019-02-11T01:13:57.652Z,99301.17
2019-02-11T01:14:59.833Z,99313.77
2019-02-11T01:16:04.127Z,99317.27
2019-02-11T01:17:06.375Z,99314.56
2019-02-11T01:18:08.555Z,99310.66
2019-02-11T01:19:10.789Z,99314.56
2019-02-11T01:20:12.990Z,99321.05
2019-02-11T01:21:15.151Z,99324.56
2019-02-11T01:22:17.353Z,99321.95
2019-02-11T01:23:19.575Z,99323.26
2019-02-11T01:24:21.799Z,99327.16
2019-02-11T01:25:23.999Z,99325.73
2019-02-11T01:26:26.319Z,99332.75
2019-02-11T01:27:28.530Z,99333.53
2019-02-11T01:28:30.773Z,99330.55
2019-02-11T01:29:32.968Z,99331.84
2019-02-11T01:30:35.172Z,99334.44
2019-02-11T01:31:37.396Z,99335.23
2019-02-11T01:32:39.603Z,99337.83
2019-02-11T01:33:41.820Z,99336.92
2019-02-11T01:34:44.029Z,99333.02
2019-02-11T01:35:46.230Z,99347.44
2019-02-11T01:36:50.420Z,99337.83
2019-02-11T01:37:52.299Z,99348.22
2019-02-11T01:38:54.625Z,99344.72
2019-02-11T01:39:56.824Z,99341.22
2019-02-11T01:40:59.033Z,99349.01
2019-02-11T01:42:01.269Z,99348.62
2019-02-11T01:43:03.480Z,99353.42
2019-02-11T01:44:05.687Z,99347.70
2019-02-11T01:45:07.905Z,99357.71
2019-02-11T01:46:10.129Z,99350.70
2019-02-11T01:47:12.335Z,99354.59
2019-02-11T01:48:14.529Z,99355.11
2019-02-11T01:49:16.743Z,99356.80
2019-02-11T01:50:18.954Z,99352.52
2019-02-11T01:51:21.177Z,99351.61
2019-02-11T01:52:25.504Z,99352.52
2019-02-11T01:53:27.812Z,99353.81
2019-02-11T01:54:30.017Z,99352.91
2019-02-11T01:55:32.228Z,99351.21
2019-02-11T01:56:34.430Z,99355.89
2019-02-11T01:57:36.668Z,99352.52
2019-02-11T01:58:38.880Z,99355.38
2019-02-11T01:59:41.094Z,99356.30
2019-02-11T02:00:43.312Z,99357.59
2019-02-11T02:01:45.522Z,99356.69
2019-02-11T02:02:47.748Z,99363.30
2019-02-11T02:03:49.958Z,99366.69
2019-02-11T02:04:52.103Z,99367.98
2019-02-11T02:05:54.313Z,99366.14
2019-02-11T02:06:56.544Z,99366.30
2019-02-11T02:08:01.822Z,99371.88
2019-02-11T02:09:05.268Z,99365.39
2019-02-11T02:10:07.466Z,99370.19
2019-02-11T02:11:09.673Z,99365.90
2019-02-11T02:12:11.884Z,99366.69
2019-02-11T02:13:14.131Z,99369.28
2019-02-11T02:14:16.339Z,99371.88
2019-02-11T02:15:18.534Z,99375.39
2019-02-11T02:16:23.956Z,99383.03
2019-02-11T02:17:26.087Z,99383.97
2019-02-11T02:18:28.315Z,99389.68
2019-02-11T02:19:30.515Z,99390.98
2019-02-11T02:20:34.851Z,99388.23
2019-02-11T02:21:37.037Z,99389.16
2019-02-11T02:22:39.230Z,99386.17
2019-02-11T02:23:41.450Z,99387.47
2019-02-11T02:24:43.665Z,99379.12
2019-02-11T02:25:45.874Z,99379.92
2019-02-11T02:26:48.097Z,99382.67
2019-02-11T02:27:50.298Z,99382.67
2019-02-11T02:28:52.509Z,99380.07
2019-02-11T02:29:54.637Z,99380.07
2019-02-11T02:30:56.896Z,99374.33
2019-02-11T02:31:59.051Z,99379.68
2019-02-11T02:33:01.348Z,99378.77
2019-02-11T02:34:03.593Z,99375.78
2019-02-11T02:35:05.777Z,99381.73
2019-02-11T02:36:07.974Z,99384.48
2019-02-11T02:37:10.183Z,99383.97
2019-02-11T02:38:12.386Z,99386.17
2019-02-11T02:39:14.622Z,99381.38
2019-02-11T02:40:16.823Z,99394.36
2019-02-11T02:41:19.045Z,99392.13
2019-02-11T02:42:21.245Z,99386.92
2019-02-11T02:43:23.457Z,99400.86
2019-02-11T02:44:25.691Z,99403.45
2019-02-11T02:45:27.891Z,99403.97
2019-02-11T02:46:30.086Z,99401.77
2019-02-11T02:47:32.286Z,99409.56
2019-02-11T02:48:34.488Z,99408.66
2019-02-11T02:49:36.717Z,99418.66
2019-02-11T02:50:38.911Z,99414.21
2019-02-11T02:51:42.116Z,99415.16
2019-02-11T02:52:44.307Z,99416.45
2019-02-11T02:53:46.779Z,99421.65
2019-02-11T02:54:48.985Z,99418.27
2019-02-11T02:55:51.193Z,99420.34
2019-02-11T02:56:53.381Z,99424.60
2019-02-11T02:57:55.512Z,99429.45
2019-02-11T02:58:57.713Z,99427.98
2019-02-11T02:59:59.946Z,99436.30
2019-02-11T03:01:02.147Z,99441.14
2019-02-11T03:02:04.883Z,99439.29
2019-02-11T03:03:07.086Z,99438.89
2019-02-11T03:04:09.285Z,99443.19
2019-02-11T03:05:11.529Z,99441.50
2019-02-11T03:06:13.731Z,99435.78
2019-02-11T03:07:16.495Z,99447.48
2019-02-11T03:08:18.707Z,99445.03
2019-02-11T03:09:20.916Z,99450.98
2019-02-11T03:10:23.147Z,99450.47
2019-02-11T03:11:25.350Z,99451.38
2019-02-11T03:12:27.582Z,99461.92
2019-02-11T03:13:29.773Z,99460.08
2019-02-11T03:14:31.988Z,99465.66
2019-02-11T03:15:34.213Z,99462.67
2019-02-11T03:16:36.345Z,99461.38
2019-02-11T03:17:38.565Z,99468.27
2019-02-11T03:18:40.759Z,99465.66
2019-02-11T03:19:42.962Z,99470.86
2019-02-11T03:20:45.177Z,99476.97
2019-02-11T03:21:47.376Z,99476.45
2019-02-11T03:22:49.582Z,99475.55
2019-02-11T03:23:51.785Z,99482.55
2019-02-11T03:24:53.993Z,99481.77
2019-02-11T03:25:56.257Z,99477.36
2019-02-11T03:26:58.490Z,99480.86
2019-02-11T03:28:00.724Z,99489.95
2019-02-11T03:29:02.908Z,99487.75
2019-02-11T03:30:05.090Z,99485.16
2019-02-11T03:31:07.245Z,99499.45
2019-02-11T03:32:09.444Z,99492.95
2019-02-11T03:33:11.647Z,99499.84
2019-02-11T03:34:13.834Z,99501.26
2019-02-11T03:35:16.033Z,99501.14
2019-02-11T03:36:18.264Z,99504.25
2019-02-11T03:37:20.455Z,99509.84
2019-02-11T03:38:24.524Z,99510.23
2019-02-11T03:39:26.504Z,99511.02
2019-02-11T03:40:28.701Z,99512.44
2019-02-11T03:41:30.923Z,99514.52
2019-02-11T03:42:33.135Z,99517.64
2019-02-11T03:43:35.337Z,99521.02
2019-02-11T03:44:37.537Z,99521.02
2019-02-11T03:45:39.736Z,99529.72
2019-02-11T03:46:41.965Z,99531.41
2019-02-11T03:47:44.092Z,99538.81
2019-02-11T03:48:46.288Z,99547.52
2019-02-11T03:49:48.487Z,99543.11
2019-02-11T03:50:50.677Z,99531.41
2019-02-11T03:51:52.924Z,99546.09
2019-02-11T03:52:55.110Z,99549.99
2019-02-11T03:53:57.308Z,99555.70
2019-02-11T03:54:59.518Z,99548.30
2019-02-11T03:56:01.721Z,99558.30
2019-02-11T03:57:03.941Z,99562.59
2019-02-11T03:58:06.152Z,99557.40
2019-02-11T03:59:08.343Z,99560.00
2019-02-11T04:00:11.116Z,99569.48
2019-02-11T04:01:13.330Z,99562.98
2019-02-11T04:02:15.577Z,99569.48
2019-02-11T04:03:17.751Z,99561.69
2019-02-11T04:04:22.268Z,99584.29
2019-02-11T04:05:24.470Z,99573.89
2019-02-11T04:06:26.595Z,99581.69
2019-02-11T04:07:28.833Z,99576.38
2019-02-11T04:08:31.022Z,99574.67
2019-02-11T04:09:33.218Z,99586.89
2019-02-11T04:10:35.418Z,99587.67
2019-02-11T04:11:37.671Z,99583.77
2019-02-11T04:12:39.932Z,99581.17
2019-02-11T04:13:42.132Z,99580.27
2019-02-11T04:14:44.326Z,99582.08
2019-02-11T04:15:46.534Z,99585.47
2019-02-11T04:16:48.731Z,99589.87
2019-02-11T04:17:50.978Z,99586.77
2019-02-11T04:18:53.198Z,99595.47
2019-02-11T04:19:55.631Z,99591.05
2019-02-11T04:20:57.882Z,99594.56
2019-02-11T04:22:00.074Z,99595.08
2019-02-11T04:23:02.311Z,99601.97
2019-02-11T04:24:04.510Z,99601.97
2019-02-11T04:25:06.704Z,99614.05
2019-02-11T04:26:08.908Z,99611.45
2019-02-11T04:27:11.094Z,99621.06
2019-02-11T04:28:13.325Z,99614.05
2019-02-11T04:29:15.514Z,99619.77
2019-02-11T04:30:17.729Z,99614.95
2019-02-11T04:31:19.927Z,99606.25
2019-02-11T04:32:22.791Z,99614.05
2019-02-11T04:33:24.982Z,99622.75
2019-02-11T04:34:27.201Z,99619.77
2019-02-11T04:35:29.391Z,99615.34
2019-02-11T04:36:31.599Z,99617.95
2019-02-11T04:37:33.723Z,99624.44
2019-02-11T04:38:35.956Z,99629.25
2019-02-11T04:39:38.157Z,99626.52
2019-02-11T04:40:40.375Z,99630.03
2019-02-11T04:41:42.580Z,99633.14
2019-02-11T04:42:44.776Z,99646.53
2019-02-11T04:43:46.983Z,99640.94
2019-02-11T04:44:50.887Z,99643.54
2019-02-11T04:45:53.138Z,99641.72
2019-02-11T04:46:55.344Z,99645.63
2019-02-11T04:47:57.582Z,99650.42
2019-02-11T04:48:59.771Z,99650.42
2019-02-11T04:50:01.991Z,99651.33
2019-02-11T04:51:04.200Z,99645.63
2019-02-11T04:52:11.019Z,99651.20
2019-02-11T04:53:13.234Z,99663.42
2019-02-11T04:54:15.468Z,99653.41
2019-02-11T04:55:17.658Z,99655.63
2019-02-11T04:56:19.864Z,99660.43
2019-02-11T04:57:22.076Z,99656.41
2019-02-11T04:58:24.283Z,99653.80
2019-02-11T04:59:26.474Z,99669.40
2019-02-11T05:00:28.672Z,99665.11
2019-02-11T05:01:30.864Z,99659.91
2019-02-11T05:02:33.073Z,99668.62
2019-02-11T05:03:35.292Z,99670.30
2019-02-11T05:04:37.483Z,99665.50
2019-02-11T05:05:39.682Z,99673.30
2019-02-11T05:06:41.890Z,99684.59
2019-02-11T05:07:44.075Z,99677.71
2019-02-11T05:08:46.294Z,99675.50
2019-02-11T05:09:48.503Z,99681.48
2019-02-11T05:10:50.709Z,99678.49
2019-02-11T05:11:52.918Z,99683.30
2019-02-11T05:12:55.119Z,99684.47
2019-02-11T05:13:57.365Z,99690.19
2019-02-11T05:14:59.568Z,99690.19
2019-02-11T05:16:02.797Z,99701.88
2019-02-11T05:17:04.979Z,99695.77
2019-02-11T05:18:07.179Z,99702.27
2019-02-11T05:19:09.408Z,99699.28
2019-02-11T05:20:11.632Z,99699.67
2019-02-11T05:21:13.835Z,99698.38
2019-02-11T05:22:16.044Z,99703.18
2019-02-11T05:23:18.239Z,99702.79
2019-02-11T05:24:20.464Z,99705.78
2019-02-11T05:25:22.663Z,99710.19
2019-02-11T05:26:24.891Z,99709.80
2019-02-11T05:27:27.076Z,99709.80
2019-02-11T05:28:29.271Z,99715.91
2019-02-11T05:29:31.562Z,99719.94
2019-02-11T05:30:34.359Z,99727.34
2019-02-11T05:31:36.551Z,99732.19
2019-02-11T05:32:38.756Z,99723.09
2019-02-11T05:33:40.956Z,99728.80
2019-02-11T05:34:43.185Z,99723.61
2019-02-11T05:35:45.378Z,99731.41
2019-02-11T05:36:47.580Z,99737.90
2019-02-11T05:37:49.804Z,99741.80
2019-02-11T05:38:52.063Z,99738.41
2019-02-11T05:39:54.265Z,99742.44
2019-02-11T05:40:56.458Z,99752.97
2019-02-11T05:41:58.649Z,99751.67
2019-02-11T05:43:00.860Z,99751.15
2019-02-11T05:44:05.696Z,99757.13
2019-02-11T05:45:06.961Z,99759.73
2019-02-11T05:46:09.170Z,99763.11
2019-02-11T05:47:11.379Z,99762.98
2019-02-11T05:48:13.578Z,99768.56
2019-02-11T05:49:15.799Z,99774.67
2019-02-11T05:50:18.033Z,99780.61
2019-02-11T05:51:20.242Z,99780.09
2019-02-11T05:52:22.463Z,99784.77
2019-02-11T05:53:24.676Z,99784.38
2019-02-11T05:54:26.987Z,99780.87
2019-02-11T05:55:29.222Z,99783.86
2019-02-11T05:56:31.432Z,99792.95
2019-02-11T05:57:33.651Z,99786.33
2019-02-11T05:58:35.856Z,99793.22
2019-02-11T05:59:39.928Z,99788.93
2019-02-11T06:00:41.944Z,99787.63
2019-02-11T06:01:45.138Z,99790.62
2019-02-11T06:02:47.343Z,99794.00
2019-02-11T06:03:49.539Z,99797.11
2019-02-11T06:04:51.735Z,99792.31
2019-02-11T06:05:55.183Z,99801.02
2019-02-11T06:06:57.355Z,99806.21
2019-02-11T06:07:59.576Z,99804.39
2019-02-11T06:09:02.800Z,99813.88
2019-02-11T06:10:04.996Z,99816.08
2019-02-11T06:11:07.223Z,99815.30
2019-02-11T06:12:09.421Z,99813.48
2019-02-11T06:13:11.630Z,99810.37
2019-02-11T06:14:13.907Z,99818.55
2019-02-11T06:15:16.127Z,99817.77
2019-02-11T06:16:18.359Z,99807.38
2019-02-11T06:17:20.552Z,99822.19
2019-02-11T06:18:22.741Z,99821.28
2019-02-11T06:19:24.966Z,99830.38
2019-02-11T06:20:27.146Z,99840.77
2019-02-11T06:21:29.392Z,99846.36
2019-02-11T06:22:31.593Z,99847.66
2019-02-11T06:23:33.726Z,99852.85
2019-02-11T06:24:35.919Z,99844.15
2019-02-11T06:25:38.152Z,99855.84
2019-02-11T06:26:40.393Z,99858.44
2019-02-11T06:27:43.139Z,99861.03
2019-02-11T06:28:45.349Z,99863.50
2019-02-11T06:29:47.712Z,99859.61
2019-02-11T06:30:50.075Z,99864.02
2019-02-11T06:31:52.261Z,99867.92
2019-02-11T06:32:54.395Z,99866.10
2019-02-11T06:33:56.608Z,99867.79
2019-02-11T06:34:58.812Z,99858.30
2019-02-11T06:36:01.021Z,99857.78
2019-02-11T06:37:03.264Z,99859.61
2019-02-11T06:38:06.042Z,99863.50
2019-02-11T06:39:08.238Z,99860.00
2019-02-11T06:40:10.436Z,99870.39
2019-02-11T06:41:12.631Z,99865.97
2019-02-11T06:42:14.926Z,99870.39
2019-02-11T06:43:17.066Z,99868.31
2019-02-11T06:44:19.193Z,99866.23
2019-02-11T06:45:21.319Z,99875.59
2019-02-11T06:46:23.528Z,99877.33
2019-02-11T06:47:25.746Z,99885.13
2019-02-11T06:48:27.952Z,99886.95
2019-02-11T06:49:30.148Z,99894.79
2019-02-11T06:50:35.368Z,99906.62
2019-02-11T06:51:37.881Z,99908.73
2019-02-11T06:52:40.132Z,99901.75
2019-02-11T06:53:42.335Z,99912.41
2019-02-11T06:54:44.556Z,99912.67
2019-02-11T06:55:46.764Z,99916.31
2019-02-11T06:56:48.968Z,99920.73
2019-02-11T06:57:51.203Z,99927.38
2019-02-11T06:58:53.406Z,99929.36
2019-02-11T06:59:55.602Z,99939.11
2019-02-11T07:00:57.826Z,99945.35
2019-02-11T07:02:00.026Z,99948.09
2019-02-11T07:03:02.268Z,99960.17
2019-02-11T07:04:04.476Z,99961.61
2019-02-11T07:05:06.686Z,99964.34
2019-02-11T07:06:08.890Z,99965.12
2019-02-11T07:07:11.093Z,99969.41
2019-02-11T07:08:13.302Z,99978.52
2019-02-11T07:09:15.433Z,99983.84
2019-02-11T07:10:17.633Z,99986.31
2019-02-11T07:11:19.830Z,99993.73
2019-02-11T07:12:22.049Z,99995.94
2019-02-11T07:13:27.343Z,99999.45
2019-02-11T07:14:29.574Z,100006.73
2019-02-11T07:15:31.794Z,100006.08
2019-02-11T07:16:34.002Z,100015.19
2019-02-11T07:17:36.152Z,100021.16
2019-02-11T07:18:38.376Z,100017.13
2019-02-11T07:19:40.600Z,100016.61
2019-02-11T07:20:42.815Z,100031.82
2019-02-11T07:21:45.016Z,100026.63
2019-02-11T07:22:47.222Z,100033.51
2019-02-11T07:23:49.470Z,100036.11
2019-02-11T07:24:51.679Z,100040.02
2019-02-11T07:25:53.885Z,100043.78
2019-02-11T07:26:56.097Z,100044.55
2019-02-11T07:27:58.314Z,100049.23
2019-02-11T07:29:00.544Z,100051.28
2019-02-11T07:30:02.777Z,100055.73
2019-02-11T07:31:04.986Z,100054.27
2019-02-11T07:32:07.213Z,100064.67
2019-02-11T07:33:09.422Z,100068.95
2019-02-11T07:34:11.577Z,100066.36
2019-02-11T07:35:13.786Z,100069.73
2019-02-11T07:36:17.868Z,100075.72
2019-02-11T07:37:19.847Z,100075.72
2019-02-11T07:38:22.069Z,100082.60
2019-02-11T07:39:24.296Z,100080.39
2019-02-11T07:40:26.509Z,100089.49
2019-02-11T07:41:36.887Z,100093.78
2019-02-11T07:43:01.518Z,100091.95
2019-02-11T07:44:10.630Z,100095.86
2019-02-11T07:45:29.516Z,100095.33
2019-02-11T07:46:31.919Z,100097.02
2019-02-11T07:47:34.125Z,100106.52
2019-02-11T07:48:36.334Z,100104.30
2019-02-11T07:49:38.540Z,100105.08
2019-02-11T07:50:40.748Z,100114.31
2019-02-11T07:51:42.956Z,100123.28
2019-02-11T07:52:45.171Z,100130.69
2019-02-11T07:53:47.384Z,100132.37
2019-02-11T07:54:49.953Z,100136.66
2019-02-11T07:55:52.184Z,100143.69
2019-02-11T07:56:54.384Z,100147.59
2019-02-11T07:57:56.590Z,100147.06
2019-02-11T07:58:58.801Z,100149.28
2019-02-11T08:00:01.008Z,100153.95
2019-02-11T08:01:03.247Z,100170.08
2019-02-11T08:02:07.161Z,100171.24
2019-02-11T08:03:09.374Z,100171.63
2019-02-11T08:04:11.583Z,100176.44
2019-02-11T08:05:13.783Z,100174.97
2019-02-11T08:06:16.125Z,100177.57
2019-02-11T08:07:18.349Z,100185.38
2019-02-11T08:08:20.529Z,100187.83
2019-02-11T08:09:22.757Z,100193.03
2019-02-11T08:10:24.980Z,100197.84
2019-02-11T08:11:27.220Z,100199.14
2019-02-11T08:12:29.417Z,100200.83
2019-02-11T08:13:31.633Z,100204.20
2019-02-11T08:14:33.842Z,100208.11
2019-02-11T08:15:38.808Z,100221.62
2019-02-11T08:16:40.059Z,100221.62
2019-02-11T08:17:42.381Z,100226.83
2019-02-11T08:18:44.577Z,100232.03
2019-02-11T08:19:46.773Z,100232.80
2019-02-11T08:20:49.244Z,100236.31
2019-02-11T08:21:51.498Z,100235.41
2019-02-11T08:22:53.703Z,100240.05
2019-02-11T08:23:55.921Z,100251.92
2019-02-11T08:24:58.050Z,100246.55
2019-02-11T08:26:02.223Z,100251.00
2019-02-11T08:27:04.167Z,100251.74
2019-02-11T08:28:06.378Z,100254.34
2019-02-11T08:29:08.574Z,100257.33
2019-02-11T08:30:10.792Z,100255.64
2019-02-11T08:31:14.571Z,100261.23
2019-02-11T08:32:19.128Z,100259.41
2019-02-11T08:33:21.532Z,100262.00
2019-02-11T08:34:23.730Z,100260.70
2019-02-11T08:35:25.929Z,100261.62
2019-02-11T08:36:30.484Z,100265.91
2019-02-11T08:37:32.721Z,100274.62
2019-02-11T08:38:34.926Z,100272.93
2019-02-11T08:39:37.157Z,100275.91
2019-02-11T08:40:39.355Z,100276.69
2019-02-11T08:41:41.597Z,100276.02
2019-02-11T08:42:43.821Z,100286.81
2019-02-11T08:43:46.031Z,100280.83
2019-02-11T08:44:48.833Z,100287.86
2019-02-11T08:45:51.039Z,100300.86
2019-02-11T08:46:53.234Z,100297.20
2019-02-11T08:47:55.472Z,100294.99
2019-02-11T08:48:57.690Z,100300.97
2019-02-11T08:49:59.993Z,100300.05
2019-02-11T08:51:02.195Z,100309.30
2019-02-11T08:52:04.402Z,100313.97
2019-02-11T08:53:06.623Z,100320.08
2019-02-11T08:54:08.842Z,100306.16
2019-02-11T08:55:11.057Z,100313.19
2019-02-11T08:56:13.265Z,100315.02
2019-02-11T08:57:15.471Z,100312.03
2019-02-11T08:58:17.681Z,100316.32
2019-02-11T08:59:19.882Z,100322.95
2019-02-11T09:00:22.092Z,100324.26
2019-02-11T09:01:24.293Z,100322.57
2019-02-11T09:02:26.495Z,100329.45
2019-02-11T09:03:28.736Z,100336.48
2019-02-11T09:04:30.943Z,100330.76
2019-02-11T09:05:33.143Z,100338.17
2019-02-11T09:06:35.411Z,100341.30
2019-02-11T09:07:37.549Z,100341.69
2019-02-11T09:08:39.765Z,100341.30
2019-02-11T09:09:41.975Z,100344.28
2019-02-11T09:10:44.182Z,100346.11
2019-02-11T09:11:46.399Z,100344.67
2019-02-11T09:12:48.602Z,100350.92
2019-02-11T09:13:50.838Z,100347.27
2019-02-11T09:14:52.972Z,100347.80
2019-02-11T09:15:55.579Z,100357.28
2019-02-11T09:16:57.796Z,100363.54
2019-02-11T09:18:00.008Z,100366.14
2019-02-11T09:19:02.239Z,100371.34
2019-02-11T09:20:04.447Z,100375.23
2019-02-11T09:21:06.595Z,100376.55
2019-02-11T09:22:08.818Z,100381.36
2019-02-11T09:23:11.015Z,100378.23
2019-02-11T09:24:13.260Z,100382.52
2019-02-11T09:25:15.466Z,100388.24
2019-02-11T09:26:17.667Z,100395.66
2019-02-11T09:27:20.198Z,100393.83
2019-02-11T09:28:22.394Z,100394.36
2019-02-11T09:29:24.573Z,100403.45
2019-02-11T09:30:26.770Z,100398.64
2019-02-11T09:31:28.989Z,100398.64
2019-02-11T09:32:31.200Z,100410.52
2019-02-11T09:33:33.418Z,100410.91
2019-02-11T09:34:35.649Z,100412.20
2019-02-11T09:35:40.690Z,100413.13
2019-02-11T09:36:42.898Z,100409.95
2019-02-11T09:37:45.100Z,100420.16
2019-02-11T09:38:47.319Z,100413.13
2019-02-11T09:39:49.555Z,100425.34
2019-02-11T09:40:51.782Z,100430.16
2019-02-11T09:41:54.001Z,100438.73
2019-02-11T09:42:56.200Z,100428.34
2019-02-11T09:43:58.416Z,100441.72
2019-02-11T09:45:00.672Z,100447.98
2019-02-11T09:46:04.171Z,100442.25
2019-02-11T09:47:06.383Z,100451.88
2019-02-11T09:48:08.591Z,100446.68
2019-02-11T09:49:10.828Z,100457.64
2019-02-11T09:50:13.043Z,100463.44
2019-02-11T09:51:15.266Z,100472.53
2019-02-11T09:52:17.413Z,100463.44
2019-02-11T09:53:19.610Z,100475.28
2019-02-11T09:54:21.752Z,100477.35
2019-02-11T09:55:23.977Z,100478.27
2019-02-11T09:56:26.191Z,100480.87
2019-02-11T09:57:28.415Z,100487.37
2019-02-11T09:58:30.627Z,100486.64
2019-02-11T09:59:32.831Z,100482.73
2019-02-11T10:00:35.076Z,100487.94
2019-02-11T10:01:37.274Z,100491.84
2019-02-11T10:02:39.490Z,100496.65
2019-02-11T10:03:41.682Z,100498.69
2019-02-11T10:04:43.881Z,100499.98
2019-02-11T10:05:46.090Z,100500.55
2019-02-11T10:06:48.354Z,100504.84
2019-02-11T10:07:50.571Z,100510.56
2019-02-11T10:08:52.773Z,100510.03
2019-02-11T10:09:54.970Z,100522.27
2019-02-11T10:10:57.138Z,100523.95
2019-02-11T10:11:59.335Z,100521.35
2019-02-11T10:13:01.548Z,100527.47
2019-02-11T10:14:03.767Z,100533.05
2019-02-11T10:15:05.907Z,100533.79
2019-02-11T10:16:12.483Z,100531.75
2019-02-11T10:17:11.992Z,100544.38
2019-02-11T10:18:14.197Z,100539.55
2019-02-11T10:19:16.396Z,100547.36
2019-02-11T10:20:18.599Z,100550.48
2019-02-11T10:21:20.866Z,100556.07
2019-02-11T10:22:23.079Z,100554.39
2019-02-11T10:23:25.231Z,100553.47
2019-02-11T10:24:27.442Z,100559.80
2019-02-11T10:25:29.627Z,100568.16
2019-02-11T10:26:31.799Z,100566.47
2019-02-11T10:27:34.024Z,100566.47
2019-02-11T10:28:36.241Z,100569.61
2019-02-11T10:29:38.440Z,100569.98
2019-02-11T10:30:40.652Z,100571.67
2019-02-11T10:31:42.900Z,100572.59
2019-02-11T10:32:45.103Z,100574.27
2019-02-11T10:33:47.324Z,100582.22
2019-02-11T10:34:49.529Z,100576.88
2019-02-11T10:35:52.045Z,100579.09
2019-02-11T10:36:54.253Z,100582.61
2019-02-11T10:37:56.388Z,100579.47
2019-02-11T10:38:59.029Z,100588.72
2019-02-11T10:40:01.894Z,100595.22
2019-02-11T10:41:04.270Z,100595.08
2019-02-11T10:42:06.497Z,100602.49
2019-02-11T10:43:08.712Z,100601.20
2019-02-11T10:44:10.946Z,100607.70
2019-02-11T10:45:13.147Z,100615.11
2019-02-11T10:46:20.839Z,100616.41
2019-02-11T10:47:19.190Z,100617.56
2019-02-11T10:48:21.395Z,100623.83
2019-02-11T10:49:23.590Z,100627.58
2019-02-11T10:50:25.798Z,100632.55
2019-02-11T10:51:28.006Z,100630.72
2019-02-11T10:52:30.241Z,100637.60
2019-02-11T10:53:32.439Z,100639.43
2019-02-11T10:54:34.671Z,100638.75
2019-02-11T10:55:36.875Z,100644.30
2019-02-11T10:56:39.084Z,100653.97
2019-02-11T10:57:41.330Z,100652.48
2019-02-11T10:58:43.530Z,100661.05
2019-02-11T10:59:45.736Z,100654.70
2019-02-11T11:00:51.047Z,100654.94
2019-02-11T11:01:53.247Z,100659.75
2019-02-11T11:02:59.368Z,100659.75
2019-02-11T11:04:01.598Z,100670.30
2019-02-11T11:05:03.825Z,100669.95
2019-02-11T11:06:06.036Z,100681.27
2019-02-11T11:07:08.546Z,100685.55
2019-02-11T11:08:10.811Z,100672.37
2019-02-11T11:09:15.004Z,100686.67
2019-02-11T11:10:17.218Z,100682.77
2019-02-11T11:11:19.443Z,100687.77
2019-02-11T11:12:21.640Z,100684.07
2019-02-11T11:13:23.885Z,100683.30
2019-02-11T11:14:26.152Z,100689.27
2019-02-11T11:15:29.010Z,100693.36
2019-02-11T11:16:31.366Z,100687.20
2019-02-11T11:17:33.563Z,100689.66
2019-02-11T11:18:35.819Z,100687.20
2019-02-11T11:19:38.034Z,100701.16
2019-02-11T11:20:40.244Z,100699.86
2019-02-11T11:21:42.475Z,100708.95
2019-02-11T11:22:44.674Z,100711.17
2019-02-11T11:23:46.913Z,100710.80
2019-02-11T11:24:49.137Z,100720.81
2019-02-11T11:25:51.344Z,100716.77
2019-02-11T11:26:53.546Z,100720.28
2019-02-11T11:27:55.767Z,100721.96
2019-02-11T11:28:57.995Z,100720.28
2019-02-11T11:30:00.344Z,100725.48
2019-02-11T11:31:02.649Z,100727.16
2019-02-11T11:32:04.863Z,100729.38
2019-02-11T11:33:07.080Z,100728.61
2019-02-11T11:34:09.438Z,100727.70
2019-02-11T11:35:11.737Z,100732.90
2019-02-11T11:36:13.935Z,100735.50
2019-02-11T11:37:16.139Z,100736.27
2019-02-11T11:38:18.343Z,100738.09
2019-02-11T11:39:22.883Z,100744.22
2019-02-11T11:40:25.102Z,100751.09
2019-02-11T11:41:27.385Z,100746.28
2019-02-11T11:42:29.590Z,100749.61
2019-02-11T11:43:31.801Z,100753.52
2019-02-11T11:44:34.008Z,100751.87
2019-02-11T11:45:36.239Z,100751.48
2019-02-11T11:46:46.740Z,100760.97
2019-02-11T11:47:42.286Z,100758.72
2019-02-11T11:48:44.515Z,100761.88
2019-02-11T11:49:46.755Z,100756.69
2019-02-11T11:50:49.004Z,100767.09
2019-02-11T11:51:51.228Z,100768.77
2019-02-11T11:52:53.450Z,100768.39
2019-02-11T11:53:55.648Z,100771.91
2019-02-11T11:54:57.875Z,100781.39
2019-02-11T11:56:02.389Z,100776.72
2019-02-11T11:57:04.148Z,100782.45
2019-02-11T11:58:06.354Z,100781.92
2019-02-11T11:59:08.560Z,100783.38
2019-02-11T12:00:14.093Z,100785.44
2019-02-11T12:01:19.280Z,100787.66
2019-02-11T12:02:20.186Z,100795.84
2019-02-11T12:03:22.407Z,100798.83
2019-02-11T12:04:24.632Z,100805.71
2019-02-11T12:05:26.851Z,100808.31